Time;durP1;ratioP1;P1;durP2;ratioP2;P2;SDS_P1;SDS_P2;PMS_P1;PMS_P2;Temp;Humidity;BMP_temperature;BMP_pressure;BME280_temperature;BME280_humidity;BME280_pressure;Samples;Min_cycle;Max_cycle;Signal;HPM_P1;HPM_P2
2022/08/06 00:00:20;;;;;;;2.20;1.93;;;;;;;;;;5030987;28;20178;-73
2022/08/06 00:02:45;;;;;;;1.90;1.80;;;;;;;;;;5028619;28;20196;-71
2022/08/06 00:05:10;;;;;;;2.43;2.20;;;;;;;;;;5039332;28;20198;-72
2022/08/06 00:07:36;;;;;;;3.77;2.57;;;;;;;;;;5036379;28;20276;-72
2022/08/06 00:10:01;;;;;;;2.03;1.80;;;;;;;;;;5052072;28;20201;-72
2022/08/06 00:12:31;;;;;;;2.30;2.10;;;;;;;;;;5043686;28;20401;-73
2022/08/06 00:14:56;;;;;;;3.13;2.20;;;;;;;;;;5055445;28;20177;-73
2022/08/06 00:17:23;;;;;;;2.00;1.90;;;;;;;;;;5041789;28;20181;-72
2022/08/06 00:19:48;;;;;;;2.93;2.23;;;;;;;;;;5036155;28;20220;-74
2022/08/06 00:22:13;;;;;;;2.77;2.20;;;;;;;;;;5036942;28;20208;-71
2022/08/06 00:24:39;;;;;;;4.03;2.23;;;;;;;;;;5053796;28;20253;-73
2022/08/06 00:27:04;;;;;;;3.27;2.00;;;;;;;;;;5031832;28;20174;-72
2022/08/06 00:29:29;;;;;;;2.13;2.03;;;;;;;;;;5037961;28;20226;-73
2022/08/06 00:31:54;;;;;;;2.50;2.30;;;;;;;;;;5035592;28;20268;-72
2022/08/06 00:34:20;;;;;;;2.87;2.13;;;;;;;;;;5033596;28;20180;-72
2022/08/06 00:36:45;;;;;;;3.33;1.90;;;;;;;;;;5036082;28;20186;-72
2022/08/06 00:39:10;;;;;;;2.53;2.07;;;;;;;;;;5055134;28;20170;-72
2022/08/06 00:41:36;;;;;;;2.47;2.17;;;;;;;;;;5035234;28;20186;-73
2022/08/06 00:44:01;;;;;;;2.03;1.83;;;;;;;;;;5056905;28;20193;-72
2022/08/06 00:46:27;;;;;;;3.73;2.17;;;;;;;;;;5038897;28;20194;-73
2022/08/06 00:48:52;;;;;;;2.97;2.37;;;;;;;;;;5037916;28;20204;-72
2022/08/06 00:51:18;;;;;;;2.13;2.00;;;;;;;;;;5034202;28;20180;-73
2022/08/06 00:53:43;;;;;;;2.70;2.20;;;;;;;;;;5051241;28;20244;-72
2022/08/06 00:56:08;;;;;;;2.47;2.27;;;;;;;;;;5034757;28;20177;-72
2022/08/06 00:58:33;;;;;;;3.03;2.10;;;;;;;;;;5052949;28;20173;-73
2022/08/06 01:00:59;;;;;;;2.33;2.23;;;;;;;;;;5031524;28;20197;-72
2022/08/06 01:03:24;;;;;;;3.43;2.20;;;;;;;;;;5055393;28;20184;-72
2022/08/06 01:05:52;;;;;;;3.10;2.43;;;;;;;;;;5056546;28;20176;-72
2022/08/06 01:08:18;;;;;;;2.60;2.10;;;;;;;;;;5036038;28;20215;-72
2022/08/06 01:10:43;;;;;;;2.27;2.03;;;;;;;;;;5031427;28;20169;-71
2022/08/06 01:13:09;;;;;;;2.53;2.30;;;;;;;;;;5048119;28;20179;-72
2022/08/06 01:15:36;;;;;;;3.30;2.20;;;;;;;;;;5035679;28;20266;-72
2022/08/06 01:18:37;;;;;;;2.73;2.07;;;;;;;;;;5035186;28;20205;-74
2022/08/06 01:21:08;;;;;;;2.20;2.00;;;;;;;;;;5045469;28;20230;-72
2022/08/06 01:23:36;;;;;;;2.80;1.87;;;;;;;;;;5050814;28;20180;-72
2022/08/06 01:26:10;;;;;;;2.43;1.90;;;;;;;;;;5042218;28;20173;-72
2022/08/06 01:28:43;;;;;;;3.33;2.33;;;;;;;;;;5030231;28;20205;-72
2022/08/06 01:31:10;;;;;;;6.77;2.67;;;;;;;;;;5047702;28;20189;-72
2022/08/06 01:33:49;;;;;;;2.13;2.03;;;;;;;;;;5048236;28;20215;-72
2022/08/06 01:36:18;;;;;;;3.27;2.37;;;;;;;;;;5034392;28;20207;-73
2022/08/06 01:38:48;;;;;;;2.53;2.13;;;;;;;;;;5035884;28;20176;-72
2022/08/06 01:41:38;;;;;;;2.47;2.17;;;;;;;;;;5051166;28;20176;-72
2022/08/06 01:44:03;;;;;;;2.00;1.90;;;;;;;;;;5038839;28;20181;-72
2022/08/06 01:46:30;;;;;;;2.03;1.80;;;;;;;;;;5049928;28;20192;-72
2022/08/06 01:48:56;;;;;;;2.00;1.90;;;;;;;;;;5049654;28;20201;-72
2022/08/06 01:51:23;;;;;;;1.90;1.80;;;;;;;;;;5033877;28;20181;-72
2022/08/06 01:53:48;;;;;;;2.27;1.70;;;;;;;;;;5018261;28;20253;-71
2022/08/06 01:56:13;;;;;;;4.43;2.00;;;;;;;;;;5013327;28;20280;-72
2022/08/06 01:58:41;;;;;;;2.07;1.97;;;;;;;;;;5012480;28;20248;-73
2022/08/06 02:01:08;;;;;;;1.87;1.77;;;;;;;;;;5013292;28;20299;-72
2022/08/06 02:03:36;;;;;;;2.97;2.30;;;;;;;;;;5014217;28;20207;-72
2022/08/06 02:06:02;;;;;;;2.30;1.97;;;;;;;;;;5031011;28;20264;-72
2022/08/06 02:08:29;;;;;;;3.47;1.83;;;;;;;;;;5032611;28;20287;-72
2022/08/06 02:10:55;;;;;;;3.30;2.10;;;;;;;;;;5013884;28;20216;-73
2022/08/06 02:13:22;;;;;;;2.20;2.00;;;;;;;;;;5021645;28;20172;-72
2022/08/06 02:15:49;;;;;;;2.63;1.80;;;;;;;;;;5010618;28;20181;-72
2022/08/06 02:18:15;;;;;;;1.87;1.77;;;;;;;;;;5011839;28;20211;-72
2022/08/06 02:20:43;;;;;;;3.20;2.20;;;;;;;;;;5035621;28;20188;-72
2022/08/06 02:23:12;;;;;;;2.10;2.00;;;;;;;;;;5030663;28;20185;-72
2022/08/06 02:25:41;;;;;;;3.03;2.10;;;;;;;;;;5028872;28;20189;-73
2022/08/06 02:28:06;;;;;;;2.53;2.20;;;;;;;;;;5007941;28;20427;-72
2022/08/06 02:30:36;;;;;;;2.17;1.83;;;;;;;;;;5014053;28;20267;-72
2022/08/06 02:33:03;;;;;;;2.00;1.90;;;;;;;;;;5010473;28;20180;-72
2022/08/06 02:35:29;;;;;;;2.20;2.00;;;;;;;;;;5030642;28;20180;-72
2022/08/06 02:38:00;;;;;;;2.03;1.93;;;;;;;;;;5030900;28;20183;-72
2022/08/06 02:40:29;;;;;;;3.33;2.00;;;;;;;;;;5030156;28;21317;-72
2022/08/06 02:43:10;;;;;;;2.43;2.10;;;;;;;;;;5024486;28;20180;-72
2022/08/06 02:45:40;;;;;;;2.80;2.20;;;;;;;;;;5003270;28;20187;-72
2022/08/06 02:48:17;;;;;;;2.47;2.10;;;;;;;;;;5010680;28;20177;-71
2022/08/06 02:50:44;;;;;;;3.07;2.10;;;;;;;;;;5008791;28;20213;-72
2022/08/06 02:53:13;;;;;;;2.50;2.30;;;;;;;;;;5021812;28;20254;-73
2022/08/06 02:55:39;;;;;;;3.33;2.23;;;;;;;;;;5032539;28;20184;-72
2022/08/06 02:58:11;;;;;;;2.53;2.00;;;;;;;;;;5051868;28;20189;-71
2022/08/06 03:00:38;;;;;;;3.57;2.00;;;;;;;;;;5046433;28;20181;-71
2022/08/06 03:03:04;;;;;;;2.10;1.90;;;;;;;;;;5037778;28;20210;-73
2022/08/06 03:05:29;;;;;;;2.20;2.00;;;;;;;;;;5044384;28;20199;-71
2022/08/06 03:07:57;;;;;;;3.17;2.20;;;;;;;;;;5043800;28;20194;-72
2022/08/06 03:10:24;;;;;;;4.73;2.20;;;;;;;;;;5041416;28;20180;-73
2022/08/06 03:12:51;;;;;;;1.93;1.83;;;;;;;;;;5036816;28;20205;-72
2022/08/06 03:15:18;;;;;;;2.33;2.10;;;;;;;;;;5063526;28;20394;-72
2022/08/06 03:17:45;;;;;;;2.90;2.13;;;;;;;;;;5030500;28;20184;-71
2022/08/06 03:20:10;;;;;;;2.60;2.13;;;;;;;;;;5027629;28;20493;-71
2022/08/06 03:22:36;;;;;;;2.60;1.80;;;;;;;;;;5028425;28;20483;-72
2022/08/06 03:25:02;;;;;;;4.00;2.40;;;;;;;;;;5038549;28;20218;-71
2022/08/06 03:27:29;;;;;;;3.30;2.20;;;;;;;;;;5033484;28;20277;-71
2022/08/06 03:29:55;;;;;;;3.43;2.30;;;;;;;;;;5028661;28;20216;-72
2022/08/06 03:32:20;;;;;;;2.60;1.80;;;;;;;;;;5040181;28;20190;-72
2022/08/06 03:34:46;;;;;;;2.30;2.10;;;;;;;;;;5034938;28;20176;-72
2022/08/06 03:37:12;;;;;;;3.07;2.30;;;;;;;;;;5032001;28;20191;-72
2022/08/06 03:39:38;;;;;;;2.00;1.80;;;;;;;;;;5030339;28;20190;-73
2022/08/06 03:42:04;;;;;;;2.17;1.97;;;;;;;;;;5031199;28;20484;-72
2022/08/06 03:44:29;;;;;;;3.30;2.00;;;;;;;;;;5028653;28;20267;-71
2022/08/06 03:47:16;;;;;;;2.37;2.07;;;;;;;;;;5050195;28;20179;-72
2022/08/06 03:49:44;;;;;;;2.33;2.10;;;;;;;;;;5034338;28;20202;-72
2022/08/06 03:52:11;;;;;;;2.70;2.30;;;;;;;;;;5030425;28;20206;-72
2022/08/06 03:54:40;;;;;;;2.97;2.37;;;;;;;;;;5043363;28;20272;-72
2022/08/06 03:57:08;;;;;;;2.57;2.37;;;;;;;;;;5046431;28;20202;-72
2022/08/06 03:59:34;;;;;;;2.90;2.20;;;;;;;;;;5045096;28;20235;-72
2022/08/06 04:02:00;;;;;;;2.20;2.00;;;;;;;;;;5032014;28;20198;-72
2022/08/06 04:04:25;;;;;;;2.60;2.17;;;;;;;;;;5049915;28;20276;-72
2022/08/06 04:06:52;;;;;;;2.60;2.40;;;;;;;;;;5049785;28;20266;-72
2022/08/06 04:09:18;;;;;;;2.67;2.30;;;;;;;;;;5051570;28;20241;-73
2022/08/06 04:11:44;;;;;;;3.97;2.53;;;;;;;;;;5032317;28;20208;-71
2022/08/06 04:14:09;;;;;;;3.80;2.03;;;;;;;;;;5047188;28;20218;-73
2022/08/06 04:16:35;;;;;;;2.33;1.80;;;;;;;;;;5037173;28;20236;-71
2022/08/06 04:19:01;;;;;;;4.00;2.40;;;;;;;;;;5051976;28;20239;-73
2022/08/06 04:21:26;;;;;;;3.13;2.40;;;;;;;;;;5029952;28;20186;-71
2022/08/06 04:23:52;;;;;;;4.03;2.43;;;;;;;;;;5033055;28;20230;-72
2022/08/06 04:26:19;;;;;;;2.33;2.13;;;;;;;;;;5058628;28;20524;-72
2022/08/06 04:28:47;;;;;;;3.97;2.17;;;;;;;;;;5031422;28;20203;-73
2022/08/06 04:31:12;;;;;;;3.17;2.30;;;;;;;;;;5044799;28;20237;-72
2022/08/06 04:33:39;;;;;;;2.23;2.03;;;;;;;;;;5028833;28;20175;-72
2022/08/06 04:36:05;;;;;;;3.10;2.37;;;;;;;;;;5050923;28;20192;-72
2022/08/06 04:38:31;;;;;;;2.50;2.30;;;;;;;;;;5036427;28;20186;-71
2022/08/06 04:40:56;;;;;;;3.83;2.20;;;;;;;;;;5035019;28;20183;-72
2022/08/06 04:43:21;;;;;;;3.77;2.67;;;;;;;;;;5054850;28;20256;-73
2022/08/06 04:45:47;;;;;;;2.67;2.47;;;;;;;;;;5036928;28;20190;-72
2022/08/06 04:48:13;;;;;;;2.70;2.50;;;;;;;;;;5053579;28;20181;-72
2022/08/06 04:50:39;;;;;;;2.63;2.10;;;;;;;;;;5039569;28;20181;-71
2022/08/06 04:53:05;;;;;;;3.77;2.93;;;;;;;;;;5052572;28;20227;-71
2022/08/06 04:55:30;;;;;;;3.07;2.50;;;;;;;;;;5048952;28;20186;-71
2022/08/06 04:57:55;;;;;;;2.37;2.20;;;;;;;;;;5031736;28;20181;-72
2022/08/06 05:00:20;;;;;;;2.70;2.50;;;;;;;;;;5031626;28;20282;-72
2022/08/06 05:02:46;;;;;;;2.87;2.50;;;;;;;;;;5046337;28;20230;-72
2022/08/06 05:05:13;;;;;;;2.90;2.03;;;;;;;;;;5028685;28;20182;-73
2022/08/06 05:07:39;;;;;;;3.50;2.53;;;;;;;;;;5035208;28;20185;-72
2022/08/06 05:10:06;;;;;;;5.43;2.70;;;;;;;;;;5049128;28;20209;-72
2022/08/06 05:12:43;;;;;;;2.50;2.30;;;;;;;;;;5035490;28;20289;-73
2022/08/06 05:15:16;;;;;;;3.83;2.80;;;;;;;;;;5041011;28;20174;-71
2022/08/06 05:17:44;;;;;;;2.57;2.23;;;;;;;;;;5032774;28;20182;-72
2022/08/06 05:20:15;;;;;;;7.80;3.00;;;;;;;;;;5051059;28;20192;-72
2022/08/06 05:22:43;;;;;;;2.47;2.27;;;;;;;;;;5032625;28;20268;-72
2022/08/06 05:25:08;;;;;;;2.83;2.63;;;;;;;;;;5056477;28;20170;-71
2022/08/06 05:27:34;;;;;;;2.57;2.30;;;;;;;;;;5035371;28;20178;-71
2022/08/06 05:30:00;;;;;;;3.07;2.73;;;;;;;;;;5055258;28;20251;-71
2022/08/06 05:32:26;;;;;;;3.30;2.50;;;;;;;;;;5040315;28;20175;-72
2022/08/06 05:34:51;;;;;;;3.93;2.90;;;;;;;;;;5036898;28;20198;-72
2022/08/06 05:37:16;;;;;;;3.03;2.30;;;;;;;;;;5032066;28;20180;-71
2022/08/06 05:39:41;;;;;;;3.83;2.40;;;;;;;;;;5035588;28;20185;-71
2022/08/06 05:42:06;;;;;;;4.33;2.70;;;;;;;;;;5032568;28;20181;-71
2022/08/06 05:44:32;;;;;;;2.60;2.40;;;;;;;;;;5055181;28;20252;-72
2022/08/06 05:47:02;;;;;;;3.83;2.63;;;;;;;;;;5051515;28;20189;-71
2022/08/06 05:49:33;;;;;;;4.10;3.77;;;;;;;;;;5053032;28;20246;-72
2022/08/06 05:52:04;;;;;;;3.37;2.57;;;;;;;;;;5031403;28;20175;-73
2022/08/06 05:54:32;;;;;;;2.97;2.70;;;;;;;;;;5009387;28;20195;-72
2022/08/06 05:57:01;;;;;;;3.67;2.93;;;;;;;;;;5015044;28;20177;-71
2022/08/06 05:59:28;;;;;;;2.60;2.40;;;;;;;;;;5017039;28;20190;-71
2022/08/06 06:01:54;;;;;;;4.40;3.40;;;;;;;;;;5013363;28;20177;-71
2022/08/06 06:04:19;;;;;;;6.17;2.53;;;;;;;;;;5026665;28;20178;-71
2022/08/06 06:06:45;;;;;;;3.40;2.73;;;;;;;;;;5030975;28;20188;-72
2022/08/06 06:09:13;;;;;;;3.70;2.70;;;;;;;;;;5022710;28;20218;-73
2022/08/06 06:11:38;;;;;;;3.27;2.50;;;;;;;;;;5010815;28;20186;-72
2022/08/06 06:14:06;;;;;;;3.07;2.50;;;;;;;;;;5027547;28;20175;-73
2022/08/06 06:16:34;;;;;;;3.00;2.80;;;;;;;;;;5027626;28;20184;-71
2022/08/06 06:19:02;;;;;;;4.00;2.70;;;;;;;;;;5011435;28;20211;-72
2022/08/06 06:21:40;;;;;;;3.00;2.70;;;;;;;;;;5013945;28;20197;-72
2022/08/06 06:24:08;;;;;;;2.60;2.40;;;;;;;;;;5033407;28;20174;-72
2022/08/06 06:26:52;;;;;;;2.67;2.47;;;;;;;;;;5027938;28;20182;-72
2022/08/06 06:29:27;;;;;;;4.00;2.60;;;;;;;;;;5025615;28;20211;-73
2022/08/06 06:32:01;;;;;;;3.13;2.80;;;;;;;;;;5025162;28;20182;-71
2022/08/06 06:34:36;;;;;;;3.67;2.90;;;;;;;;;;5011324;28;20183;-72
2022/08/06 06:37:04;;;;;;;3.77;2.53;;;;;;;;;;5012053;28;20186;-72
2022/08/06 06:39:38;;;;;;;3.20;3.00;;;;;;;;;;5005576;28;20215;-72
2022/08/06 06:42:07;;;;;;;2.90;2.70;;;;;;;;;;5004644;28;20187;-73
2022/08/06 06:44:35;;;;;;;4.17;2.80;;;;;;;;;;5005116;28;20183;-72
2022/08/06 06:47:03;;;;;;;2.93;2.63;;;;;;;;;;5005847;28;20310;-72
2022/08/06 06:49:54;;;;;;;5.03;2.93;;;;;;;;;;5023446;28;20253;-72
2022/08/06 06:52:24;;;;;;;3.03;2.60;;;;;;;;;;5021050;28;20235;-73
2022/08/06 06:55:06;;;;;;;2.57;2.37;;;;;;;;;;5028809;28;20172;-73
2022/08/06 06:57:32;;;;;;;3.67;3.37;;;;;;;;;;5018481;28;20381;-73
2022/08/06 07:00:00;;;;;;;4.30;3.03;;;;;;;;;;5020581;28;20184;-72
2022/08/06 07:02:28;;;;;;;3.00;2.70;;;;;;;;;;5009502;28;20196;-73
2022/08/06 07:04:54;;;;;;;2.97;2.50;;;;;;;;;;5006328;28;20200;-72
2022/08/06 07:07:20;;;;;;;2.30;2.17;;;;;;;;;;5006215;28;20179;-72
2022/08/06 07:09:47;;;;;;;2.77;2.50;;;;;;;;;;5023028;28;20272;-71
2022/08/06 07:12:13;;;;;;;3.03;2.60;;;;;;;;;;5031792;28;20268;-72
2022/08/06 07:14:38;;;;;;;3.03;2.83;;;;;;;;;;5018564;28;20275;-72
2022/08/06 07:17:05;;;;;;;2.77;2.53;;;;;;;;;;5021668;28;20270;-71
2022/08/06 07:19:30;;;;;;;3.23;2.30;;;;;;;;;;5022439;28;20260;-71
2022/08/06 07:21:56;;;;;;;3.40;2.53;;;;;;;;;;5007308;28;20179;-73
2022/08/06 07:24:23;;;;;;;2.60;2.40;;;;;;;;;;5021893;28;20211;-74
2022/08/06 07:26:50;;;;;;;2.63;2.43;;;;;;;;;;5017240;28;20180;-73
2022/08/06 07:29:16;;;;;;;2.70;2.50;;;;;;;;;;5023922;28;20214;-73
2022/08/06 07:31:41;;;;;;;2.60;2.27;;;;;;;;;;5021779;28;20169;-72
2022/08/06 07:34:07;;;;;;;2.70;2.50;;;;;;;;;;5020293;28;20354;-73
2022/08/06 07:36:35;;;;;;;2.50;2.10;;;;;;;;;;5007875;28;20186;-72
2022/08/06 07:39:02;;;;;;;2.50;2.07;;;;;;;;;;5031119;28;20305;-72
2022/08/06 07:41:28;;;;;;;3.07;2.10;;;;;;;;;;5007457;28;20234;-72
2022/08/06 07:43:55;;;;;;;3.50;2.37;;;;;;;;;;5028511;28;20179;-72
2022/08/06 07:46:22;;;;;;;2.13;2.03;;;;;;;;;;5010309;28;20179;-72
2022/08/06 07:48:49;;;;;;;3.20;2.23;;;;;;;;;;5026947;28;20200;-72
2022/08/06 07:51:15;;;;;;;2.40;2.10;;;;;;;;;;5010787;28;20216;-73
2022/08/06 07:53:41;;;;;;;2.10;2.00;;;;;;;;;;5046385;28;20236;-71
2022/08/06 07:56:08;;;;;;;3.80;2.50;;;;;;;;;;5044480;28;20226;-76
2022/08/06 07:58:34;;;;;;;2.90;2.10;;;;;;;;;;5037235;28;20175;-74
2022/08/06 08:01:00;;;;;;;2.57;2.33;;;;;;;;;;5030058;28;20180;-75
2022/08/06 08:06:22;;;;;;;7.53;3.03;;;;;;;;;;5052371;28;20193;-75
2022/08/06 08:08:49;;;;;;;3.37;2.40;;;;;;;;;;5057812;28;20199;-75
2022/08/06 08:11:15;;;;;;;4.23;2.37;;;;;;;;;;5036948;28;20230;-75
2022/08/06 08:13:41;;;;;;;3.37;2.57;;;;;;;;;;5033826;28;20265;-75
2022/08/06 08:16:07;;;;;;;3.90;2.17;;;;;;;;;;5030291;28;20243;-76
2022/08/06 08:18:32;;;;;;;3.63;2.03;;;;;;;;;;5042300;28;20253;-75
2022/08/06 08:20:58;;;;;;;2.83;1.93;;;;;;;;;;5039108;28;20189;-77
2022/08/06 08:23:24;;;;;;;3.40;2.07;;;;;;;;;;5043117;28;20180;-69
2022/08/06 08:25:49;;;;;;;2.30;2.10;;;;;;;;;;5042360;28;20203;-68
2022/08/06 08:28:16;;;;;;;4.00;2.83;;;;;;;;;;5041628;28;20208;-69
2022/08/06 08:30:42;;;;;;;3.47;1.90;;;;;;;;;;5025370;28;20226;-68
2022/08/06 08:33:08;;;;;;;2.50;2.30;;;;;;;;;;5047388;28;20189;-69
2022/08/06 08:35:33;;;;;;;2.70;2.10;;;;;;;;;;5041371;28;20179;-69
2022/08/06 08:37:58;;;;;;;2.47;2.00;;;;;;;;;;5040372;28;20178;-69
2022/08/06 08:40:24;;;;;;;2.20;1.77;;;;;;;;;;5024062;28;20186;-68
2022/08/06 08:42:55;;;;;;;2.10;1.90;;;;;;;;;;5040555;28;20185;-69
2022/08/06 08:45:20;;;;;;;1.97;1.43;;;;;;;;;;5025879;28;20186;-68
2022/08/06 08:47:49;;;;;;;1.77;1.60;;;;;;;;;;5028359;28;20176;-68
2022/08/06 08:50:15;;;;;;;2.33;1.70;;;;;;;;;;5041693;28;20198;-69
2022/08/06 08:52:43;;;;;;;2.10;1.90;;;;;;;;;;5026154;28;20258;-68
2022/08/06 08:55:10;;;;;;;2.27;1.70;;;;;;;;;;5046412;28;20216;-69
2022/08/06 08:57:36;;;;;;;2.00;1.60;;;;;;;;;;5046981;28;20182;-68
2022/08/06 09:00:02;;;;;;;2.13;1.80;;;;;;;;;;5042724;28;20194;-68
2022/08/06 09:02:28;;;;;;;5.70;5.20;;;;;;;;;;5044151;28;20179;-68
2022/08/06 09:04:54;;;;;;;2.50;1.80;;;;;;;;;;5036270;28;20212;-68
2022/08/06 09:07:20;;;;;;;2.47;1.93;;;;;;;;;;5057721;28;20198;-68
2022/08/06 09:09:45;;;;;;;2.90;1.63;;;;;;;;;;5026718;28;20210;-68
2022/08/06 09:12:10;;;;;;;3.63;2.03;;;;;;;;;;5050599;28;20213;-69
2022/08/06 09:14:36;;;;;;;2.67;1.57;;;;;;;;;;5045910;28;20175;-68
2022/08/06 09:17:02;;;;;;;1.87;1.70;;;;;;;;;;5049160;28;20194;-68
2022/08/06 09:19:29;;;;;;;2.93;1.70;;;;;;;;;;5029743;28;20282;-70
2022/08/06 09:21:55;;;;;;;1.67;1.57;;;;;;;;;;5038032;28;20266;-68
2022/08/06 09:24:20;;;;;;;2.87;1.67;;;;;;;;;;5049065;28;20187;-68
2022/08/06 09:27:02;;;;;;;3.10;1.93;;;;;;;;;;5033426;28;20200;-69
2022/08/06 09:29:27;;;;;;;1.80;1.70;;;;;;;;;;5034317;28;20196;-69
2022/08/06 09:31:52;;;;;;;4.13;1.60;;;;;;;;;;5044065;28;20179;-69
2022/08/06 09:34:18;;;;;;;3.67;1.67;;;;;;;;;;5032330;28;20175;-69
2022/08/06 09:36:43;;;;;;;2.80;2.00;;;;;;;;;;5035234;28;20172;-68
2022/08/06 09:39:09;;;;;;;2.00;1.57;;;;;;;;;;5051353;28;20235;-68
2022/08/06 09:41:44;;;;;;;1.53;1.43;;;;;;;;;;5036682;28;20198;-69
2022/08/06 09:44:11;;;;;;;1.97;1.40;;;;;;;;;;5034522;28;20182;-68
2022/08/06 09:46:44;;;;;;;2.47;1.40;;;;;;;;;;5046804;28;20176;-68
2022/08/06 09:49:11;;;;;;;2.90;1.50;;;;;;;;;;5023234;28;20605;-69
2022/08/06 09:51:37;;;;;;;2.47;2.27;;;;;;;;;;5027800;28;20181;-69
2022/08/06 09:54:03;;;;;;;2.57;1.80;;;;;;;;;;5049918;28;20235;-68
2022/08/06 09:56:28;;;;;;;2.37;1.80;;;;;;;;;;5028035;28;20177;-69
2022/08/06 09:59:01;;;;;;;2.03;1.43;;;;;;;;;;5045306;28;20175;-68
2022/08/06 10:01:27;;;;;;;2.00;1.80;;;;;;;;;;5045549;28;20183;-69
2022/08/06 10:03:53;;;;;;;1.50;1.40;;;;;;;;;;5049342;28;20250;-68
2022/08/06 10:06:21;;;;;;;1.60;1.50;;;;;;;;;;5046978;28;20225;-68
2022/08/06 10:08:47;;;;;;;3.73;1.77;;;;;;;;;;5045134;28;20194;-68
2022/08/06 10:11:13;;;;;;;1.77;1.67;;;;;;;;;;5048683;28;20178;-68
2022/08/06 10:13:38;;;;;;;6.13;1.53;;;;;;;;;;5029383;28;20228;-69
2022/08/06 10:16:30;;;;;;;2.17;1.60;;;;;;;;;;5036646;28;20173;-69
2022/08/06 10:18:57;;;;;;;2.33;1.60;;;;;;;;;;5028395;28;20312;-69
2022/08/06 10:21:23;;;;;;;2.03;1.60;;;;;;;;;;5027935;28;20235;-69
2022/08/06 10:23:49;;;;;;;2.10;1.50;;;;;;;;;;5047278;28;20284;-69
2022/08/06 10:26:18;;;;;;;1.95;1.60;;;;;;;;;;5022720;28;20186;-69
2022/08/06 10:28:44;;;;;;;1.63;1.53;;;;;;;;;;5039695;28;20316;-70
2022/08/06 10:31:11;;;;;;;4.57;2.30;;;;;;;;;;5042154;28;20181;-70
2022/08/06 10:33:43;;;;;;;2.33;1.43;;;;;;;;;;5039412;28;20232;-70
2022/08/06 10:36:09;;;;;;;2.40;1.50;;;;;;;;;;5048390;28;20182;-69
2022/08/06 10:38:36;;;;;;;1.95;1.55;;;;;;;;;;5031870;28;20273;-68
2022/08/06 10:41:08;;;;;;;3.45;1.85;;;;;;;;;;5050035;28;20190;-69
2022/08/06 10:43:34;;;;;;;2.92;1.50;;;;;;;;;;5034973;28;20262;-69
2022/08/06 10:46:00;;;;;;;1.60;1.50;;;;;;;;;;5035492;28;20243;-68
2022/08/06 10:48:25;;;;;;;1.83;1.70;;;;;;;;;;5034558;28;20178;-70
2022/08/06 10:50:51;;;;;;;3.65;1.60;;;;;;;;;;5029850;28;20182;-69
2022/08/06 10:53:16;;;;;;;1.73;1.53;;;;;;;;;;5027527;28;20221;-69
2022/08/06 10:55:41;;;;;;;8.53;1.90;;;;;;;;;;5033477;28;20182;-70
2022/08/06 10:58:07;;;;;;;2.00;1.60;;;;;;;;;;5022036;28;20178;-69
2022/08/06 11:00:33;;;;;;;1.40;1.30;;;;;;;;;;5036550;28;20213;-69
2022/08/06 11:03:15;;;;;;;2.20;1.45;;;;;;;;;;5029948;28;20178;-70
2022/08/06 11:05:40;;;;;;;2.45;1.60;;;;;;;;;;5015545;28;20256;-69
2022/08/06 11:08:15;;;;;;;3.88;2.15;;;;;;;;;;4998709;28;20243;-70
2022/08/06 11:10:53;;;;;;;3.05;1.60;;;;;;;;;;5033242;28;20324;-69
2022/08/06 11:13:27;;;;;;;1.80;1.50;;;;;;;;;;5032162;28;20214;-69
2022/08/06 11:15:52;;;;;;;1.95;1.83;;;;;;;;;;5028232;28;20182;-69
2022/08/06 11:18:18;;;;;;;3.28;1.58;;;;;;;;;;5014485;28;20198;-69
2022/08/06 11:20:44;;;;;;;2.55;1.42;;;;;;;;;;5029052;28;20179;-69
2022/08/06 11:23:12;;;;;;;2.55;1.75;;;;;;;;;;5036856;28;20182;-69
2022/08/06 11:25:48;;;;;;;2.65;1.73;;;;;;;;;;5035034;28;20185;-69
2022/08/06 11:28:36;;;;;;;2.58;1.70;;;;;;;;;;5012114;28;20174;-69
2022/08/06 11:31:03;;;;;;;2.45;1.80;;;;;;;;;;5020679;28;20263;-69
2022/08/06 11:33:31;;;;;;;2.75;2.03;;;;;;;;;;5037366;28;20183;-70
2022/08/06 11:35:56;;;;;;;1.98;1.60;;;;;;;;;;5031542;28;20218;-70
2022/08/06 11:38:40;;;;;;;9.20;1.90;;;;;;;;;;5017550;28;20468;-69
2022/08/06 11:41:12;;;;;;;2.47;1.83;;;;;;;;;;5024064;28;20177;-70
2022/08/06 11:43:38;;;;;;;2.83;1.70;;;;;;;;;;5036387;28;20345;-69
2022/08/06 11:46:20;;;;;;;3.58;1.90;;;;;;;;;;5013398;28;20265;-69
2022/08/06 11:49:03;;;;;;;3.28;1.85;;;;;;;;;;5032781;28;20237;-69
2022/08/06 11:51:47;;;;;;;6.88;2.03;;;;;;;;;;5032564;28;20182;-70
2022/08/06 11:54:13;;;;;;;4.20;2.05;;;;;;;;;;5058269;28;20279;-69
2022/08/06 11:57:07;;;;;;;2.22;1.83;;;;;;;;;;5029864;28;20177;-68
2022/08/06 11:59:37;;;;;;;3.63;1.70;;;;;;;;;;5004877;28;20245;-69
2022/08/06 12:02:04;;;;;;;1.85;1.52;;;;;;;;;;5050374;28;20200;-69
2022/08/06 12:04:32;;;;;;;1.77;1.67;;;;;;;;;;5049119;28;20186;-70
2022/08/06 12:07:16;;;;;;;1.67;1.58;;;;;;;;;;5050126;28;20213;-70
2022/08/06 12:09:42;;;;;;;1.58;1.48;;;;;;;;;;5047974;28;20228;-69
2022/08/06 12:12:28;;;;;;;4.97;2.10;;;;;;;;;;5033898;28;20202;-70
2022/08/06 12:14:55;;;;;;;2.50;1.73;;;;;;;;;;5044437;28;20174;-70
2022/08/06 12:17:21;;;;;;;1.70;1.58;;;;;;;;;;5038040;28;20171;-69
2022/08/06 12:19:53;;;;;;;3.67;1.90;;;;;;;;;;5032128;28;20230;-69
2022/08/06 12:22:20;;;;;;;2.10;1.60;;;;;;;;;;5053068;28;20192;-69
2022/08/06 12:24:47;;;;;;;6.28;1.55;;;;;;;;;;5036846;28;20217;-69
2022/08/06 12:27:13;;;;;;;3.13;2.05;;;;;;;;;;5055981;28;20174;-69
2022/08/06 12:29:39;;;;;;;2.15;1.70;;;;;;;;;;5056285;28;20202;-69
2022/08/06 12:32:25;;;;;;;1.90;1.67;;;;;;;;;;5032149;28;20196;-69
2022/08/06 12:34:51;;;;;;;2.15;1.80;;;;;;;;;;5053717;28;20186;-70
2022/08/06 12:37:17;;;;;;;3.08;1.50;;;;;;;;;;5032980;28;20182;-70
2022/08/06 12:42:28;;;;;;;1.60;1.50;;;;;;;;;;5051079;28;20249;-69
2022/08/06 12:44:53;;;;;;;1.83;1.73;;;;;;;;;;5058016;28;20189;-69
2022/08/06 12:47:19;;;;;;;1.63;1.50;;;;;;;;;;5038348;28;20182;-70
2022/08/06 12:49:45;;;;;;;2.13;1.92;;;;;;;;;;5049122;28;20241;-69
2022/08/06 12:52:13;;;;;;;3.45;1.92;;;;;;;;;;5043531;28;20174;-69
2022/08/06 12:54:39;;;;;;;1.70;1.60;;;;;;;;;;5029693;28;20182;-69
2022/08/06 12:57:04;;;;;;;2.45;1.75;;;;;;;;;;5046589;28;20170;-69
2022/08/06 12:59:30;;;;;;;2.75;1.60;;;;;;;;;;5029134;28;20349;-69
2022/08/06 13:01:56;;;;;;;2.83;1.40;;;;;;;;;;5030267;28;20212;-69
2022/08/06 13:04:21;;;;;;;2.53;1.55;;;;;;;;;;5033544;28;20216;-70
2022/08/06 13:06:47;;;;;;;2.22;1.70;;;;;;;;;;5051588;28;20201;-70
2022/08/06 13:09:13;;;;;;;1.83;1.70;;;;;;;;;;5051519;28;20210;-69
2022/08/06 13:11:38;;;;;;;2.40;1.52;;;;;;;;;;5044677;28;20246;-70
2022/08/06 13:14:07;;;;;;;3.83;1.40;;;;;;;;;;5052809;28;20183;-70
2022/08/06 13:16:40;;;;;;;2.22;1.58;;;;;;;;;;5045186;28;20234;-70
2022/08/06 13:19:10;;;;;;;2.97;1.77;;;;;;;;;;5048585;28;20308;-70
2022/08/06 13:21:39;;;;;;;4.55;1.77;;;;;;;;;;5046455;28;20183;-69
2022/08/06 13:24:04;;;;;;;4.25;1.67;;;;;;;;;;5025874;28;20209;-70
2022/08/06 13:26:30;;;;;;;2.25;1.60;;;;;;;;;;5046085;28;20182;-69
2022/08/06 13:29:03;;;;;;;3.97;1.67;;;;;;;;;;5024107;28;20205;-70
2022/08/06 13:31:28;;;;;;;2.33;2.03;;;;;;;;;;5045723;28;20265;-70
2022/08/06 13:34:06;;;;;;;2.13;1.40;;;;;;;;;;5041117;28;20254;-69
2022/08/06 13:36:32;;;;;;;2.03;1.55;;;;;;;;;;5029205;28;20181;-70
2022/08/06 13:38:59;;;;;;;3.10;1.60;;;;;;;;;;5046024;28;20174;-70
2022/08/06 13:41:29;;;;;;;2.28;1.65;;;;;;;;;;5045989;28;20174;-69
2022/08/06 13:43:54;;;;;;;2.22;1.63;;;;;;;;;;5031971;28;20193;-70
2022/08/06 13:46:20;;;;;;;2.72;1.58;;;;;;;;;;5044724;28;20182;-70
2022/08/06 13:48:46;;;;;;;3.58;2.15;;;;;;;;;;5046028;28;20209;-70
2022/08/06 13:51:12;;;;;;;2.70;1.90;;;;;;;;;;5025108;28;20197;-70
2022/08/06 13:53:38;;;;;;;3.13;1.90;;;;;;;;;;5041290;28;20253;-70
2022/08/06 13:56:03;;;;;;;2.20;1.40;;;;;;;;;;5033414;28;20175;-70
2022/08/06 13:58:29;;;;;;;1.67;1.55;;;;;;;;;;5017493;28;20251;-70
2022/08/06 14:00:54;;;;;;;2.78;1.70;;;;;;;;;;5023834;28;20179;-70
2022/08/06 14:03:19;;;;;;;3.72;1.60;;;;;;;;;;5011969;28;20271;-70
2022/08/06 14:05:45;;;;;;;2.00;1.77;;;;;;;;;;5015382;28;20248;-70
2022/08/06 14:08:10;;;;;;;4.05;1.52;;;;;;;;;;5036532;28;20214;-69
2022/08/06 14:10:36;;;;;;;4.00;1.80;;;;;;;;;;5033384;28;20238;-69
2022/08/06 14:13:16;;;;;;;6.72;1.90;;;;;;;;;;5036243;28;20197;-70
2022/08/06 14:15:45;;;;;;;3.05;1.80;;;;;;;;;;5036755;28;20268;-70
2022/08/06 14:18:10;;;;;;;2.92;1.80;;;;;;;;;;5015269;28;20206;-70
2022/08/06 14:20:36;;;;;;;3.38;1.90;;;;;;;;;;5010700;28;20183;-69
2022/08/06 14:23:01;;;;;;;2.05;1.48;;;;;;;;;;5015195;28;20181;-70
2022/08/06 14:25:26;;;;;;;2.58;1.70;;;;;;;;;;5033361;28;20187;-69
2022/08/06 14:27:52;;;;;;;1.48;1.38;;;;;;;;;;5019498;28;20178;-70
2022/08/06 14:30:18;;;;;;;3.05;1.52;;;;;;;;;;5031627;28;20208;-69
2022/08/06 14:32:44;;;;;;;1.73;1.63;;;;;;;;;;5017346;28;20185;-69
2022/08/06 14:35:09;;;;;;;3.05;1.60;;;;;;;;;;5013736;28;20175;-69
2022/08/06 14:37:35;;;;;;;2.00;1.40;;;;;;;;;;5029273;28;20247;-69
2022/08/06 14:40:00;;;;;;;2.00;1.90;;;;;;;;;;5030187;28;20185;-69
2022/08/06 14:45:09;;;;;;;3.10;2.15;;;;;;;;;;5019504;28;20190;-69
2022/08/06 14:47:34;;;;;;;1.65;1.52;;;;;;;;;;5021892;28;20187;-69
2022/08/06 14:50:00;;;;;;;1.70;1.60;;;;;;;;;;5026368;28;20213;-69
2022/08/06 14:52:25;;;;;;;2.53;1.63;;;;;;;;;;5015290;28;20309;-70
2022/08/06 14:54:51;;;;;;;2.30;1.85;;;;;;;;;;5046193;28;20178;-69